createdAt,value
2022-09-03T00:00:54.201Z,984.28
2022-09-03T00:01:54.234Z,984.27
2022-09-03T00:02:54.249Z,984.28
2022-09-03T00:03:54.188Z,984.21
2022-09-03T00:04:54.157Z,984.22
2022-09-03T00:05:54.149Z,984.22
2022-09-03T00:06:54.138Z,984.19
2022-09-03T00:07:54.128Z,984.19
2022-09-03T00:08:54.158Z,984.21
2022-09-03T00:09:54.106Z,984.16
2022-09-03T00:10:54.108Z,984.18
2022-09-03T00:11:54.100Z,984.20
2022-09-03T00:12:54.074Z,984.15
2022-09-03T00:13:54.066Z,984.21
2022-09-03T00:14:54.075Z,984.19
2022-09-03T00:15:54.133Z,984.20
2022-09-03T00:16:54.036Z,984.15
2022-09-03T00:17:54.024Z,984.12
2022-09-03T00:18:54.035Z,984.11
2022-09-03T00:19:54.019Z,984.15
2022-09-03T00:20:53.993Z,984.13
2022-09-03T00:21:53.989Z,984.14
2022-09-03T00:22:53.972Z,984.13
2022-09-03T00:23:54.103Z,984.12
2022-09-03T00:24:53.970Z,984.14
2022-09-03T00:25:53.943Z,984.14
2022-09-03T00:26:53.933Z,984.13
2022-09-03T00:27:53.923Z,984.13
2022-09-03T00:28:53.914Z,984.13
2022-09-03T00:29:53.921Z,984.12
2022-09-03T00:30:53.946Z,984.11
2022-09-03T00:31:53.881Z,984.15
2022-09-03T00:32:53.869Z,984.09
2022-09-03T00:33:53.864Z,984.07
2022-09-03T00:34:53.869Z,984.11
2022-09-03T00:35:53.851Z,984.10
2022-09-03T00:36:53.833Z,984.08
2022-09-03T00:37:53.820Z,984.02
2022-09-03T00:38:53.814Z,984.02
2022-09-03T00:39:54.007Z,984.01
2022-09-03T00:40:53.787Z,984.01
2022-09-03T00:41:53.786Z,984.01
2022-09-03T00:42:53.776Z,984.00
2022-09-03T00:43:53.760Z,984.04
2022-09-03T00:44:53.761Z,984.04
2022-09-03T00:45:53.767Z,984.03
2022-09-03T00:46:53.727Z,984.02
2022-09-03T00:47:53.730Z,984.06
2022-09-03T00:48:53.704Z,984.04
2022-09-03T00:49:53.711Z,984.00
2022-09-03T00:50:53.686Z,984.00
2022-09-03T00:51:53.678Z,984.04
2022-09-03T00:52:53.663Z,984.02
2022-09-03T00:53:53.655Z,983.99
2022-09-03T00:54:53.684Z,984.02
2022-09-03T00:55:53.634Z,983.98
2022-09-03T00:56:53.632Z,983.98
2022-09-03T00:57:53.633Z,984.00
2022-09-03T00:58:53.610Z,984.02
2022-09-03T00:59:53.612Z,984.01
2022-09-03T01:00:53.582Z,983.99
2022-09-03T01:01:53.683Z,984.00
2022-09-03T01:02:53.667Z,984.01
2022-09-03T01:03:53.553Z,983.97
2022-09-03T01:04:53.563Z,983.96
2022-09-03T01:05:53.532Z,983.95
2022-09-03T01:06:53.534Z,983.92
2022-09-03T01:07:53.511Z,983.95
2022-09-03T01:08:53.501Z,983.92
2022-09-03T01:09:53.604Z,983.92
2022-09-03T01:10:53.528Z,983.94
2022-09-03T01:11:53.484Z,983.95
2022-09-03T01:12:53.467Z,983.98
2022-09-03T01:13:53.568Z,983.95
2022-09-03T01:14:53.455Z,983.96
2022-09-03T01:15:53.530Z,984.00
2022-09-03T01:16:53.420Z,984.00
2022-09-03T01:17:53.408Z,983.99
2022-09-03T01:18:53.400Z,983.99
2022-09-03T01:19:53.401Z,984.05
2022-09-03T01:20:53.401Z,984.05
2022-09-03T01:21:53.381Z,984.03
2022-09-03T01:22:53.366Z,984.09
2022-09-03T01:23:53.347Z,984.05
2022-09-03T01:24:53.459Z,984.05
2022-09-03T01:25:53.326Z,983.98
2022-09-03T01:26:53.319Z,983.97
2022-09-03T01:27:53.315Z,983.97
2022-09-03T01:28:53.370Z,983.93
2022-09-03T01:29:53.307Z,983.97
2022-09-03T01:30:53.310Z,983.95
2022-09-03T01:31:53.270Z,983.94
2022-09-03T01:32:53.257Z,983.97
2022-09-03T01:33:53.252Z,983.91
2022-09-03T01:34:53.253Z,983.96
2022-09-03T01:35:53.281Z,983.91
2022-09-03T01:36:53.219Z,983.92
2022-09-03T01:37:53.204Z,983.93
2022-09-03T01:38:53.197Z,983.97
2022-09-03T01:39:53.245Z,983.94
2022-09-03T01:40:53.187Z,983.88
2022-09-03T01:41:53.161Z,983.91
2022-09-03T01:42:53.156Z,983.91
2022-09-03T01:43:53.159Z,983.95
2022-09-03T01:44:53.166Z,983.90
2022-09-03T01:45:53.233Z,983.93
2022-09-03T01:46:53.119Z,983.90
2022-09-03T01:47:53.101Z,983.92
2022-09-03T01:48:53.104Z,983.88
2022-09-03T01:49:53.080Z,983.89
2022-09-03T01:50:53.084Z,983.89
2022-09-03T01:51:53.063Z,983.89
2022-09-03T01:52:53.057Z,983.85
2022-09-03T01:53:53.040Z,983.86
2022-09-03T01:54:53.032Z,983.89
2022-09-03T01:55:53.034Z,983.83
2022-09-03T01:56:53.014Z,983.85
2022-09-03T01:57:53.014Z,983.84
2022-09-03T01:58:52.992Z,983.81
2022-09-03T01:59:52.979Z,983.82
2022-09-03T02:00:52.983Z,983.78
2022-09-03T02:01:53.007Z,983.79
2022-09-03T02:02:53.117Z,983.76
2022-09-03T02:03:52.937Z,983.78
2022-09-03T02:04:52.930Z,983.72
2022-09-03T02:05:52.931Z,983.76
2022-09-03T02:06:52.924Z,983.73
2022-09-03T02:07:52.898Z,983.76
2022-09-03T02:08:52.965Z,983.76
2022-09-03T02:09:52.895Z,983.73
2022-09-03T02:10:52.881Z,983.75
2022-09-03T02:11:52.877Z,983.73
2022-09-03T02:12:52.851Z,983.73
2022-09-03T02:13:52.836Z,983.76
2022-09-03T02:14:52.830Z,983.71
2022-09-03T02:15:52.924Z,983.75
2022-09-03T02:16:52.806Z,983.73
2022-09-03T02:17:52.793Z,983.73
2022-09-03T02:18:52.789Z,983.71
2022-09-03T02:19:52.783Z,983.76
2022-09-03T02:20:52.779Z,983.67
2022-09-03T02:21:52.773Z,983.72
2022-09-03T02:22:52.843Z,983.73
2022-09-03T02:23:52.733Z,983.75
2022-09-03T02:24:52.727Z,983.76
2022-09-03T02:25:52.723Z,983.73
2022-09-03T02:26:52.703Z,983.79
2022-09-03T02:27:52.747Z,983.74
2022-09-03T02:28:52.682Z,983.71
2022-09-03T02:29:52.689Z,983.65
2022-09-03T02:30:52.726Z,983.73
2022-09-03T02:31:52.661Z,983.71
2022-09-03T02:32:52.660Z,983.74
2022-09-03T02:33:52.633Z,983.76
2022-09-03T02:34:52.667Z,983.75
2022-09-03T02:35:52.644Z,983.69
2022-09-03T02:36:52.606Z,983.74
2022-09-03T02:37:52.590Z,983.73
2022-09-03T02:38:52.580Z,983.77
2022-09-03T02:39:52.635Z,983.72
2022-09-03T02:40:52.557Z,983.71
2022-09-03T02:41:52.588Z,983.73
2022-09-03T02:42:52.541Z,983.72
2022-09-03T02:43:52.545Z,983.66
2022-09-03T02:44:52.523Z,983.67
2022-09-03T02:45:52.588Z,983.69
2022-09-03T02:46:52.584Z,983.63
2022-09-03T02:47:52.484Z,983.61
2022-09-03T02:48:52.476Z,983.62
2022-09-03T02:49:52.466Z,983.64
2022-09-03T02:50:52.454Z,983.66
2022-09-03T02:51:52.460Z,983.63
2022-09-03T02:52:52.436Z,983.62
2022-09-03T02:53:52.442Z,983.62
2022-09-03T02:54:52.419Z,983.65
2022-09-03T02:55:52.417Z,983.65
2022-09-03T02:56:52.408Z,983.63
2022-09-03T02:57:52.399Z,983.67
2022-09-03T02:58:52.399Z,983.68
2022-09-03T02:59:52.359Z,983.66
2022-09-03T03:00:52.449Z,983.64
2022-09-03T03:01:52.418Z,983.65
2022-09-03T03:02:52.388Z,983.60
2022-09-03T03:03:52.320Z,983.59
2022-09-03T03:04:52.311Z,983.60
2022-09-03T03:05:52.308Z,983.55
2022-09-03T03:06:52.305Z,983.56
2022-09-03T03:07:52.277Z,983.59
2022-09-03T03:08:52.278Z,983.61
2022-09-03T03:09:52.259Z,983.53
2022-09-03T03:10:52.249Z,983.55
2022-09-03T03:11:52.255Z,983.55
2022-09-03T03:12:52.228Z,983.58
2022-09-03T03:13:52.221Z,983.60
2022-09-03T03:14:52.209Z,983.55
2022-09-03T03:15:52.196Z,983.53
2022-09-03T03:16:52.304Z,983.56
2022-09-03T03:17:52.174Z,983.59
2022-09-03T03:18:52.164Z,983.54
2022-09-03T03:19:52.160Z,983.55
2022-09-03T03:20:52.159Z,983.47
2022-09-03T03:21:52.159Z,983.54
2022-09-03T03:22:52.140Z,983.54
2022-09-03T03:23:52.110Z,983.52
2022-09-03T03:24:52.103Z,983.57
2022-09-03T03:25:52.092Z,983.54
2022-09-03T03:26:52.095Z,983.56
2022-09-03T03:27:52.086Z,983.57
2022-09-03T03:28:52.063Z,983.63
2022-09-03T03:29:52.084Z,983.66
2022-09-03T03:30:52.123Z,983.64
2022-09-03T03:31:52.068Z,983.63
2022-09-03T03:32:52.019Z,983.66
2022-09-03T03:33:52.017Z,983.61
2022-09-03T03:34:52.014Z,983.61
2022-09-03T03:35:51.984Z,983.59
2022-09-03T03:36:51.991Z,983.59
2022-09-03T03:37:51.966Z,983.61
2022-09-03T03:38:51.957Z,983.65
2022-09-03T03:39:52.010Z,983.66
2022-09-03T03:40:51.936Z,983.64
2022-09-03T03:41:51.974Z,983.66
2022-09-03T03:42:51.931Z,983.67
2022-09-03T03:43:51.906Z,983.67
2022-09-03T03:44:51.915Z,983.61
2022-09-03T03:45:51.960Z,983.63
2022-09-03T03:46:51.886Z,983.60
2022-09-03T03:47:51.862Z,983.63
2022-09-03T03:48:51.852Z,983.61
2022-09-03T03:49:51.844Z,983.58
2022-09-03T03:50:51.831Z,983.61
2022-09-03T03:51:51.861Z,983.61
2022-09-03T03:52:51.830Z,983.64
2022-09-03T03:53:51.821Z,983.61
2022-09-03T03:54:51.800Z,983.61
2022-09-03T03:55:51.831Z,983.64
2022-09-03T03:56:55.635Z,983.61
2022-09-03T03:57:51.756Z,983.62
2022-09-03T03:58:51.747Z,983.62
2022-09-03T03:59:51.794Z,983.67
2022-09-03T04:00:51.810Z,983.61
2022-09-03T04:01:51.728Z,983.62
2022-09-03T04:02:51.816Z,983.64
2022-09-03T04:03:51.726Z,983.66
2022-09-03T04:04:51.686Z,983.64
2022-09-03T04:05:51.688Z,983.64
2022-09-03T04:06:51.686Z,983.70
2022-09-03T04:07:51.650Z,983.68
2022-09-03T04:08:51.675Z,983.69
2022-09-03T04:09:51.632Z,983.68
2022-09-03T04:10:51.623Z,983.71
2022-09-03T04:11:51.628Z,983.69
2022-09-03T04:12:51.602Z,983.67
2022-09-03T04:13:51.591Z,983.72
2022-09-03T04:14:51.591Z,983.71
2022-09-03T04:15:51.706Z,983.71
2022-09-03T04:16:51.686Z,983.75
2022-09-03T04:17:51.551Z,983.68
2022-09-03T04:18:51.565Z,983.67
2022-09-03T04:19:51.555Z,983.71
2022-09-03T04:20:51.517Z,983.73
2022-09-03T04:21:51.522Z,983.67
2022-09-03T04:22:52.128Z,983.65
2022-09-03T04:23:51.488Z,983.65
2022-09-03T04:24:51.478Z,983.58
2022-09-03T04:25:51.465Z,983.66
2022-09-03T04:26:51.483Z,983.60
2022-09-03T04:27:51.492Z,983.62
2022-09-03T04:28:51.445Z,983.63
2022-09-03T04:29:51.446Z,983.60
2022-09-03T04:30:51.466Z,983.64
2022-09-03T04:31:51.449Z,983.62
2022-09-03T04:32:52.447Z,983.65
2022-09-03T04:33:51.383Z,983.64
2022-09-03T04:34:51.384Z,983.59
2022-09-03T04:35:51.360Z,983.63
2022-09-03T04:36:52.984Z,983.60
2022-09-03T04:37:51.342Z,983.64
2022-09-03T04:38:51.329Z,983.64
2022-09-03T04:39:51.375Z,983.63
2022-09-03T04:40:51.313Z,983.58
2022-09-03T04:41:51.354Z,983.62
2022-09-03T04:42:51.315Z,983.63
2022-09-03T04:43:51.751Z,983.65
2022-09-03T04:44:51.268Z,983.66
2022-09-03T04:45:51.292Z,983.65
2022-09-03T04:46:51.262Z,983.62
2022-09-03T04:47:51.235Z,983.60
2022-09-03T04:48:51.460Z,983.66
2022-09-03T04:49:51.212Z,983.65
2022-09-03T04:50:51.209Z,983.67
2022-09-03T04:51:51.386Z,983.69
2022-09-03T04:52:51.187Z,983.64
2022-09-03T04:53:51.179Z,983.68
2022-09-03T04:54:51.168Z,983.67
2022-09-03T04:55:51.152Z,983.72
2022-09-03T04:56:51.160Z,983.72
2022-09-03T04:57:51.130Z,983.71
2022-09-03T04:58:51.304Z,983.72
2022-09-03T04:59:51.129Z,983.73
2022-09-03T05:00:51.191Z,983.76
2022-09-03T05:01:51.155Z,983.76
2022-09-03T05:02:51.084Z,983.78
2022-09-03T05:03:51.067Z,983.74
2022-09-03T05:04:51.065Z,983.80
2022-09-03T05:05:52.558Z,983.74
2022-09-03T05:06:51.055Z,983.78
2022-09-03T05:07:51.028Z,983.81
2022-09-03T05:08:51.020Z,983.83
2022-09-03T05:09:51.009Z,983.83
2022-09-03T05:10:50.997Z,983.79
2022-09-03T05:11:51.021Z,983.79
2022-09-03T05:12:50.977Z,983.80
2022-09-03T05:13:50.976Z,983.75
2022-09-03T05:14:50.972Z,983.75
2022-09-03T05:15:50.947Z,983.79
2022-09-03T05:16:52.974Z,983.79
2022-09-03T05:17:50.945Z,983.78
2022-09-03T05:18:50.919Z,983.82
2022-09-03T05:19:50.907Z,983.81
2022-09-03T05:20:50.893Z,983.84
2022-09-03T05:21:50.899Z,983.84
2022-09-03T05:22:50.875Z,983.81
2022-09-03T05:23:50.889Z,983.84
2022-09-03T05:24:50.870Z,983.81
2022-09-03T05:25:50.855Z,983.89
2022-09-03T05:26:50.881Z,983.83
2022-09-03T05:27:50.829Z,983.83
2022-09-03T05:28:50.827Z,983.85
2022-09-03T05:29:50.804Z,983.85
2022-09-03T05:30:50.792Z,983.84
2022-09-03T05:31:50.874Z,983.82
2022-09-03T05:32:50.771Z,983.83
2022-09-03T05:33:50.760Z,983.81
2022-09-03T05:34:50.753Z,983.83
2022-09-03T05:35:50.741Z,983.85
2022-09-03T05:36:50.881Z,983.80
2022-09-03T05:37:50.737Z,983.80
2022-09-03T05:38:50.709Z,983.76
2022-09-03T05:39:50.774Z,983.78
2022-09-03T05:40:50.703Z,983.79
2022-09-03T05:41:50.717Z,983.79
2022-09-03T05:42:50.693Z,983.81
2022-09-03T05:43:50.658Z,983.82
2022-09-03T05:44:50.649Z,983.86
2022-09-03T05:45:50.731Z,983.85
2022-09-03T05:46:50.640Z,983.87
2022-09-03T05:47:50.616Z,983.86
2022-09-03T05:48:50.606Z,983.90
2022-09-03T05:49:50.594Z,983.83
2022-09-03T05:50:50.592Z,983.90
2022-09-03T05:51:50.714Z,983.91
2022-09-03T05:52:50.565Z,983.91
2022-09-03T05:53:50.554Z,983.90
2022-09-03T05:54:50.568Z,983.97
2022-09-03T05:55:50.535Z,983.99
2022-09-03T05:56:50.533Z,984.01
2022-09-03T05:57:50.577Z,983.99
2022-09-03T05:58:50.499Z,984.00
2022-09-03T05:59:50.511Z,983.97
2022-09-03T06:00:50.479Z,983.99
2022-09-03T06:01:53.745Z,983.98
2022-09-03T06:02:51.614Z,983.94
2022-09-03T06:03:50.449Z,984.00
2022-09-03T06:04:50.463Z,983.98
2022-09-03T06:05:50.453Z,984.07
2022-09-03T06:06:50.453Z,984.05
2022-09-03T06:07:50.413Z,984.04
2022-09-03T06:08:50.399Z,984.04
2022-09-03T06:09:50.390Z,984.06
2022-09-03T06:10:50.382Z,984.12
2022-09-03T06:11:50.459Z,984.09
2022-09-03T06:12:50.355Z,984.09
2022-09-03T06:13:50.352Z,984.16
2022-09-03T06:14:50.333Z,984.10
2022-09-03T06:15:50.326Z,984.12
2022-09-03T06:16:50.394Z,984.15
2022-09-03T06:17:50.312Z,984.12
2022-09-03T06:18:50.310Z,984.11
2022-09-03T06:19:50.308Z,984.15
2022-09-03T06:20:50.275Z,984.06
2022-09-03T06:21:50.312Z,984.15
2022-09-03T06:22:50.254Z,984.10
2022-09-03T06:23:50.249Z,984.09
2022-09-03T06:24:50.231Z,984.14
2022-09-03T06:25:50.222Z,984.20
2022-09-03T06:26:50.222Z,984.15
2022-09-03T06:27:50.203Z,984.16
2022-09-03T06:28:50.196Z,984.11
2022-09-03T06:29:50.187Z,984.12
2022-09-03T06:30:50.199Z,984.16
2022-09-03T06:31:50.274Z,984.15
2022-09-03T06:32:50.172Z,984.19
2022-09-03T06:33:50.142Z,984.20
2022-09-03T06:34:50.128Z,984.19
2022-09-03T06:35:50.145Z,984.19
2022-09-03T06:36:50.125Z,984.19
2022-09-03T06:37:50.100Z,984.20
2022-09-03T06:38:50.088Z,984.21
2022-09-03T06:39:50.133Z,984.19
2022-09-03T06:40:50.066Z,984.22
2022-09-03T06:41:50.072Z,984.23
2022-09-03T06:42:50.042Z,984.21
2022-09-03T06:43:50.063Z,984.23
2022-09-03T06:44:50.028Z,984.24
2022-09-03T06:45:50.090Z,984.27
2022-09-03T06:46:50.024Z,984.26
2022-09-03T06:47:50.005Z,984.34
2022-09-03T06:48:49.982Z,984.28
2022-09-03T06:49:49.975Z,984.31
2022-09-03T06:50:49.965Z,984.31
2022-09-03T06:51:49.965Z,984.32
2022-09-03T06:52:49.945Z,984.32
2022-09-03T06:53:49.931Z,984.31
2022-09-03T06:54:49.921Z,984.28
2022-09-03T06:55:49.934Z,984.32
2022-09-03T06:56:49.933Z,984.34
2022-09-03T06:57:52.883Z,984.31
2022-09-03T06:58:49.911Z,984.34
2022-09-03T06:59:49.880Z,984.36
2022-09-03T07:00:49.984Z,984.32
2022-09-03T07:01:50.257Z,984.34
2022-09-03T07:02:50.034Z,984.33
2022-09-03T07:03:49.831Z,984.34
2022-09-03T07:04:49.818Z,984.37
2022-09-03T07:05:49.810Z,984.36
2022-09-03T07:06:49.809Z,984.33
2022-09-03T07:07:49.791Z,984.34
2022-09-03T07:08:49.789Z,984.32
2022-09-03T07:09:49.767Z,984.32
2022-09-03T07:10:49.757Z,984.34
2022-09-03T07:11:49.789Z,984.36
2022-09-03T07:12:49.737Z,984.34
2022-09-03T07:13:49.741Z,984.36
2022-09-03T07:14:51.177Z,984.34
2022-09-03T07:15:49.805Z,984.34
2022-09-03T07:16:49.708Z,984.33
2022-09-03T07:17:49.689Z,984.31
2022-09-03T07:18:49.677Z,984.28
2022-09-03T07:19:49.672Z,984.35
2022-09-03T07:20:49.654Z,984.30
2022-09-03T07:21:50.873Z,984.35
2022-09-03T07:22:49.648Z,984.37
2022-09-03T07:23:49.661Z,984.28
2022-09-03T07:24:49.617Z,984.31
2022-09-03T07:25:49.654Z,984.32
2022-09-03T07:26:49.759Z,984.29
2022-09-03T07:27:49.589Z,984.28
2022-09-03T07:28:49.572Z,984.25
2022-09-03T07:29:49.559Z,984.28
2022-09-03T07:30:49.557Z,984.24
2022-09-03T07:31:49.594Z,984.21
2022-09-03T07:32:49.548Z,984.24
2022-09-03T07:33:49.541Z,984.25
2022-09-03T07:34:49.521Z,984.24
2022-09-03T07:35:49.499Z,984.18
2022-09-03T07:36:49.504Z,984.24
2022-09-03T07:37:49.483Z,984.20
2022-09-03T07:38:49.467Z,984.25
2022-09-03T07:39:49.558Z,984.26
2022-09-03T07:40:49.450Z,984.24
2022-09-03T07:41:49.453Z,984.23
2022-09-03T07:42:54.546Z,984.23
2022-09-03T07:43:50.423Z,984.14
2022-09-03T07:44:49.410Z,984.20
2022-09-03T07:45:49.410Z,984.23
2022-09-03T07:46:49.525Z,984.22
2022-09-03T07:47:49.379Z,984.21
2022-09-03T07:48:49.365Z,984.24
2022-09-03T07:49:49.377Z,984.21
2022-09-03T07:50:49.345Z,984.25
2022-09-03T07:51:49.351Z,984.22
2022-09-03T07:52:49.326Z,984.18
2022-09-03T07:53:49.817Z,984.21
2022-09-03T07:54:49.308Z,984.21
2022-09-03T07:55:49.313Z,984.22
2022-09-03T07:56:49.314Z,984.20
2022-09-03T07:57:49.273Z,984.17
2022-09-03T07:58:49.303Z,984.19
2022-09-03T07:59:49.260Z,984.18
2022-09-03T08:00:49.328Z,984.21
2022-09-03T08:01:49.261Z,984.24
2022-09-03T08:02:49.221Z,984.23
2022-09-03T08:03:49.306Z,984.25
2022-09-03T08:04:49.233Z,984.24
2022-09-03T08:05:49.190Z,984.27
2022-09-03T08:06:49.197Z,984.32
2022-09-03T08:07:49.168Z,984.35
2022-09-03T08:08:49.170Z,984.33
2022-09-03T08:09:49.149Z,984.35
2022-09-03T08:10:49.137Z,984.37
2022-09-03T08:11:49.160Z,984.38
2022-09-03T08:12:49.120Z,984.40
2022-09-03T08:13:49.105Z,984.38
2022-09-03T08:14:49.098Z,984.41
2022-09-03T08:15:49.146Z,984.41
2022-09-03T08:16:49.086Z,984.42
2022-09-03T08:17:49.065Z,984.45
2022-09-03T08:18:49.053Z,984.47
2022-09-03T08:19:49.044Z,984.47
2022-09-03T08:20:49.034Z,984.45
2022-09-03T08:21:49.038Z,984.40
2022-09-03T08:22:49.024Z,984.41
2022-09-03T08:23:49.002Z,984.43
2022-09-03T08:24:49.017Z,984.44
2022-09-03T08:25:48.980Z,984.45
2022-09-03T08:26:52.141Z,984.46
2022-09-03T08:27:48.959Z,984.50
2022-09-03T08:28:48.948Z,984.46
2022-09-03T08:29:48.942Z,984.46
2022-09-03T08:30:48.925Z,984.47
2022-09-03T08:31:48.979Z,984.50
2022-09-03T08:32:48.911Z,984.50
2022-09-03T08:33:48.896Z,984.49
2022-09-03T08:34:48.887Z,984.51
2022-09-03T08:35:48.880Z,984.57
2022-09-03T08:36:48.884Z,984.44
2022-09-03T08:37:48.857Z,984.53
2022-09-03T08:38:48.844Z,984.51
2022-09-03T08:39:48.927Z,984.53
2022-09-03T08:40:48.822Z,984.57
2022-09-03T08:41:48.827Z,984.54
2022-09-03T08:42:48.800Z,984.62
2022-09-03T08:43:48.794Z,984.62
2022-09-03T08:44:48.791Z,984.63
2022-09-03T08:45:48.788Z,984.60
2022-09-03T08:46:48.827Z,984.60
2022-09-03T08:47:48.749Z,984.65
2022-09-03T08:48:48.902Z,984.63
2022-09-03T08:49:48.737Z,984.61
2022-09-03T08:50:48.731Z,984.63
2022-09-03T08:51:48.705Z,984.64
2022-09-03T08:52:48.695Z,984.62
2022-09-03T08:53:48.685Z,984.64
2022-09-03T08:54:48.679Z,984.62
2022-09-03T08:55:48.680Z,984.67
2022-09-03T08:56:48.671Z,984.60
2022-09-03T08:57:48.738Z,984.67
2022-09-03T08:58:48.646Z,984.71
2022-09-03T08:59:48.804Z,984.68
2022-09-03T09:00:48.611Z,984.67
2022-09-03T09:01:48.754Z,984.68
2022-09-03T09:02:48.670Z,984.68
2022-09-03T09:03:48.581Z,984.68
2022-09-03T09:04:48.569Z,984.65
2022-09-03T09:05:48.563Z,984.67
2022-09-03T09:06:48.560Z,984.63
2022-09-03T09:07:48.545Z,984.67
2022-09-03T09:08:48.532Z,984.71
2022-09-03T09:09:48.517Z,984.69
2022-09-03T09:10:48.504Z,984.72
2022-09-03T09:11:48.509Z,984.66
2022-09-03T09:12:48.499Z,984.65
2022-09-03T09:13:48.478Z,984.71
2022-09-03T09:14:48.470Z,984.69
2022-09-03T09:15:48.533Z,984.68
2022-09-03T09:16:48.457Z,984.72
2022-09-03T09:17:48.440Z,984.72
2022-09-03T09:18:48.424Z,984.70
2022-09-03T09:19:48.843Z,984.70
2022-09-03T09:20:48.404Z,984.67
2022-09-03T09:21:48.413Z,984.72
2022-09-03T09:22:48.398Z,984.69
2022-09-03T09:23:48.378Z,984.68
2022-09-03T09:24:48.361Z,984.68
2022-09-03T09:25:48.369Z,984.65
2022-09-03T09:26:48.395Z,984.70
2022-09-03T09:27:48.328Z,984.66
2022-09-03T09:28:49.447Z,984.67
2022-09-03T09:29:48.307Z,984.75
2022-09-03T09:30:48.321Z,984.69
2022-09-03T09:31:48.304Z,984.70
2022-09-03T09:32:48.279Z,984.68
2022-09-03T09:33:48.297Z,984.68
2022-09-03T09:34:51.983Z,984.66
2022-09-03T09:35:48.262Z,984.69
2022-09-03T09:36:48.243Z,984.70
2022-09-03T09:37:48.225Z,984.71
2022-09-03T09:38:48.266Z,984.71
2022-09-03T09:39:48.303Z,984.70
2022-09-03T09:40:48.207Z,984.69
2022-09-03T09:41:48.187Z,984.71
2022-09-03T09:42:48.173Z,984.71
2022-09-03T09:43:48.161Z,984.73
2022-09-03T09:44:48.170Z,984.75
2022-09-03T09:45:48.168Z,984.75
2022-09-03T09:46:52.681Z,984.76
2022-09-03T09:47:49.121Z,984.75
2022-09-03T09:48:48.118Z,984.79
2022-09-03T09:49:48.108Z,984.74
2022-09-03T09:50:48.124Z,984.72
2022-09-03T09:51:48.083Z,984.81
2022-09-03T09:52:48.249Z,984.75
2022-09-03T09:53:48.059Z,984.78
2022-09-03T09:54:48.053Z,984.69
2022-09-03T09:55:48.054Z,984.75
2022-09-03T09:56:48.036Z,984.81
2022-09-03T09:57:48.018Z,984.79
2022-09-03T09:58:48.030Z,984.78
2022-09-03T09:59:47.999Z,984.77
2022-09-03T10:00:48.005Z,984.78
2022-09-03T10:01:48.065Z,984.83
2022-09-03T10:02:48.036Z,984.80
2022-09-03T10:03:47.957Z,984.81
2022-09-03T10:04:47.950Z,984.84
2022-09-03T10:05:47.960Z,984.85
2022-09-03T10:06:47.933Z,984.81
2022-09-03T10:07:47.919Z,984.86
2022-09-03T10:08:47.926Z,984.85
2022-09-03T10:09:47.893Z,984.88
2022-09-03T10:10:47.935Z,984.87
2022-09-03T10:11:47.880Z,984.92
2022-09-03T10:12:47.893Z,984.93
2022-09-03T10:13:47.861Z,984.88
2022-09-03T10:14:47.845Z,984.94
2022-09-03T10:15:47.899Z,984.94
2022-09-03T10:16:47.821Z,984.92
2022-09-03T10:17:47.813Z,984.94
2022-09-03T10:18:47.803Z,984.94
2022-09-03T10:19:47.801Z,984.91
2022-09-03T10:20:47.797Z,984.89
2022-09-03T10:21:47.769Z,984.91
2022-09-03T10:22:56.442Z,984.90
2022-09-03T10:23:48.751Z,984.92
2022-09-03T10:24:47.739Z,984.90
2022-09-03T10:25:47.755Z,984.95
2022-09-03T10:26:48.389Z,984.91
2022-09-03T10:27:47.711Z,984.91
2022-09-03T10:28:47.698Z,984.92
2022-09-03T10:29:47.705Z,984.86
2022-09-03T10:30:47.761Z,984.94
2022-09-03T10:31:47.673Z,984.90
2022-09-03T10:32:48.603Z,984.90
2022-09-03T10:33:47.644Z,984.90
2022-09-03T10:34:47.645Z,984.93
2022-09-03T10:35:47.647Z,984.90
2022-09-03T10:36:47.637Z,984.83
2022-09-03T10:37:48.375Z,984.88
2022-09-03T10:38:47.610Z,984.85
2022-09-03T10:39:51.655Z,984.87
2022-09-03T10:40:47.605Z,984.85
2022-09-03T10:41:47.561Z,984.82
2022-09-03T10:42:47.554Z,984.83
2022-09-03T10:43:47.538Z,984.82
2022-09-03T10:44:47.537Z,984.82
2022-09-03T10:45:47.531Z,984.81
2022-09-03T10:46:47.624Z,984.79
2022-09-03T10:47:47.502Z,984.78
2022-09-03T10:48:47.504Z,984.73
2022-09-03T10:49:47.506Z,984.80
2022-09-03T10:50:47.485Z,984.81
2022-09-03T10:51:49.640Z,984.79
2022-09-03T10:52:47.447Z,984.76
2022-09-03T10:53:47.434Z,984.78
2022-09-03T10:54:47.427Z,984.79
2022-09-03T10:55:47.429Z,984.79
2022-09-03T10:56:47.405Z,984.86
2022-09-03T10:57:47.393Z,984.84
2022-09-03T10:58:47.406Z,984.84
2022-09-03T10:59:47.401Z,984.84
2022-09-03T11:00:47.415Z,984.85
2022-09-03T11:01:47.402Z,984.84
2022-09-03T11:02:47.655Z,984.80
2022-09-03T11:03:47.330Z,984.71
2022-09-03T11:04:47.335Z,984.68
2022-09-03T11:05:47.327Z,984.73
2022-09-03T11:06:47.301Z,984.71
2022-09-03T11:07:47.290Z,984.70
2022-09-03T11:08:47.283Z,984.71
2022-09-03T11:09:47.270Z,984.66
2022-09-03T11:10:47.274Z,984.72
2022-09-03T11:11:47.263Z,984.72
2022-09-03T11:12:47.240Z,984.74
2022-09-03T11:13:47.232Z,984.66
2022-09-03T11:14:47.220Z,984.69
2022-09-03T11:15:47.309Z,984.65
2022-09-03T11:16:47.217Z,984.62
2022-09-03T11:17:47.186Z,984.60
2022-09-03T11:18:47.180Z,984.61
2022-09-03T11:19:47.169Z,984.59
2022-09-03T11:20:47.174Z,984.64
2022-09-03T11:21:47.150Z,984.49
2022-09-03T11:22:47.138Z,984.49
2022-09-03T11:23:47.126Z,984.49
2022-09-03T11:24:47.125Z,984.49
2022-09-03T11:25:47.129Z,984.50
2022-09-03T11:26:47.114Z,984.47
2022-09-03T11:27:47.085Z,984.48
2022-09-03T11:28:47.078Z,984.44
2022-09-03T11:29:47.063Z,984.46
2022-09-03T11:30:47.139Z,984.43
2022-09-03T11:31:47.046Z,984.40
2022-09-03T11:32:47.034Z,984.42
2022-09-03T11:33:47.021Z,984.48
2022-09-03T11:34:47.024Z,984.41
2022-09-03T11:35:47.003Z,984.39
2022-09-03T11:36:48.194Z,984.42
2022-09-03T11:37:47.001Z,984.39
2022-09-03T11:38:46.981Z,984.34
2022-09-03T11:39:46.977Z,984.40
2022-09-03T11:40:46.971Z,984.34
2022-09-03T11:41:46.978Z,984.34
2022-09-03T11:42:46.933Z,984.33
2022-09-03T11:43:46.924Z,984.26
2022-09-03T11:44:51.239Z,984.28
2022-09-03T11:45:47.955Z,984.18
2022-09-03T11:46:46.902Z,984.21
2022-09-03T11:47:46.887Z,984.19
2022-09-03T11:48:46.881Z,984.22
2022-09-03T11:49:46.863Z,984.17
2022-09-03T11:50:46.845Z,984.17
2022-09-03T11:51:46.845Z,984.14
2022-09-03T11:52:46.838Z,984.21
2022-09-03T11:53:46.836Z,984.20
2022-09-03T11:54:46.807Z,984.17
2022-09-03T11:55:46.802Z,984.12
2022-09-03T11:56:46.800Z,984.15
2022-09-03T11:57:46.770Z,984.13
2022-09-03T11:58:46.763Z,984.04
2022-09-03T11:59:46.764Z,984.13
2022-09-03T12:00:46.740Z,984.13
2022-09-03T12:01:46.774Z,984.14
2022-09-03T12:02:46.890Z,984.13
2022-09-03T12:03:46.708Z,984.10
2022-09-03T12:04:46.757Z,984.11
2022-09-03T12:05:46.713Z,984.13
2022-09-03T12:06:46.693Z,984.14
2022-09-03T12:07:46.668Z,984.07
2022-09-03T12:08:46.659Z,984.09
2022-09-03T12:09:46.650Z,984.13
2022-09-03T12:10:46.642Z,984.12
2022-09-03T12:11:46.653Z,984.16
2022-09-03T12:12:46.649Z,984.11
2022-09-03T12:13:46.611Z,984.09
2022-09-03T12:14:46.598Z,984.10
2022-09-03T12:15:46.654Z,984.11
2022-09-03T12:16:46.602Z,984.06
2022-09-03T12:17:46.598Z,984.07
2022-09-03T12:18:46.558Z,984.02
2022-09-03T12:19:46.545Z,984.06
2022-09-03T12:20:47.431Z,984.07
2022-09-03T12:21:46.543Z,984.04
2022-09-03T12:22:46.586Z,984.11
2022-09-03T12:23:46.539Z,984.12
2022-09-03T12:24:46.506Z,984.07
2022-09-03T12:25:46.501Z,984.07
2022-09-03T12:26:46.497Z,984.09
2022-09-03T12:27:46.464Z,984.04
2022-09-03T12:28:46.454Z,984.02